Time;durP1;ratioP1;P1;durP2;ratioP2;P2;SDS_P1;SDS_P2;PMS_P1;PMS_P2;Temp;Humidity;BMP_temperature;BMP_pressure;BME280_temperature;BME280_humidity;BME280_pressure;Samples;Min_cycle;Max_cycle;Signal;HPM_P1;HPM_P2
2022/09/08 00:00:38;;;;;;;;;;;18.20;99.90;;;;;;5115020;28;20112;-71
2022/09/08 00:03:09;;;;;;;23.90;12.82;;;18.20;99.90;;;;;;5113235;28;19919;-72
2022/09/08 00:05:40;;;;;;;24.00;13.07;;;18.20;99.90;;;;;;5114078;27;20108;-72
2022/09/08 00:08:07;;;;;;;21.52;13.95;;;18.20;99.90;;;;;;5111920;28;20477;-71
2022/09/08 00:10:33;;;;;;;23.67;13.32;;;18.20;99.90;;;;;;5116555;27;20043;-70
2022/09/08 00:12:59;;;;;;;;;;;18.20;99.90;;;;;;5125259;27;20047;-69
2022/09/08 00:15:24;;;;;;;22.17;13.65;;;18.10;99.90;;;;;;5120885;27;20391;-70
2022/09/08 00:17:50;;;;;;;;;;;18.10;99.90;;;;;;5133373;27;20031;-69
2022/09/08 00:20:16;;;;;;;21.45;12.50;;;18.10;99.90;;;;;;5121721;27;20051;-70
2022/09/08 00:22:41;;;;;;;;;;;18.10;99.90;;;;;;5129794;27;20040;-70
2022/09/08 00:25:08;;;;;;;19.90;12.48;;;18.10;99.90;;;;;;5123412;27;19919;-71
2022/09/08 00:27:33;;;;;;;22.65;13.63;;;18.10;99.90;;;;;;5112826;27;20075;-70
2022/09/08 00:29:59;;;;;;;;;;;18.10;99.90;;;;;;5114283;27;20082;-72
2022/09/08 00:32:24;;;;;;;20.45;12.80;;;18.00;99.90;;;;;;5111354;28;19934;-69
2022/09/08 00:34:50;;;;;;;;;;;18.00;99.90;;;;;;5112166;27;20047;-71
2022/09/08 00:37:17;;;;;;;23.75;13.93;;;18.00;99.90;;;;;;5109161;27;19923;-70
2022/09/08 00:39:42;;;;;;;24.88;14.43;;;17.90;99.90;;;;;;5111082;27;20047;-69
2022/09/08 00:42:08;;;;;;;22.35;13.85;;;17.90;99.90;;;;;;5092584;27;20112;-70
2022/09/08 00:44:49;;;;;;;23.70;14.13;;;17.90;99.90;;;;;;5111434;27;20055;-70
2022/09/08 00:47:30;;;;;;;23.10;14.88;;;17.90;99.90;;;;;;5112789;27;20059;-70
2022/09/08 00:50:22;;;;;;;24.00;14.38;;;17.90;99.90;;;;;;5111285;27;20043;-69
2022/09/08 00:52:53;;;;;;;25.35;14.57;;;17.90;99.90;;;;;;5111200;28;20044;-71
2022/09/08 00:55:20;;;;;;;24.02;14.80;;;17.80;99.90;;;;;;5112827;28;20679;-71
2022/09/08 00:57:47;;;;;;;28.63;14.57;;;17.90;99.90;;;;;;5113019;28;20039;-71
2022/09/08 01:00:20;;;;;;;29.35;15.88;;;17.80;99.90;;;;;;5121344;27;20040;-71
2022/09/08 01:02:46;;;;;;;22.15;14.43;;;17.90;99.90;;;;;;5112938;28;20114;-71
2022/09/08 01:05:19;;;;;;;23.13;13.75;;;17.90;99.90;;;;;;5112032;28;20496;-71
2022/09/08 01:13:35;;;;;;;24.90;15.20;;;18.00;99.90;;;;;;5112867;28;20056;-71
2022/09/08 01:16:03;;;;;;;24.80;14.77;;;17.90;99.90;;;;;;5112130;28;20051;-74
2022/09/08 01:18:29;;;;;;;24.30;14.75;;;18.00;99.90;;;;;;5094533;28;20052;-71
2022/09/08 01:21:19;;;;;;;27.88;15.40;;;18.00;99.90;;;;;;5123876;27;20138;-72
2022/09/08 01:24:01;;;;;;;25.95;14.60;;;18.00;99.90;;;;;;5133270;27;20388;-72
2022/09/08 01:26:59;;;;;;;24.60;14.35;;;18.00;99.90;;;;;;5124098;27;20095;-72
2022/09/08 01:29:25;;;;;;;25.98;14.13;;;18.10;99.90;;;;;;5132818;27;20043;-71
2022/09/08 01:31:52;;;;;;;;;;;18.10;99.90;;;;;;5133329;27;20129;-72
2022/09/08 01:34:19;;;;;;;22.50;13.77;;;18.10;99.90;;;;;;5132539;27;19924;-71
2022/09/08 01:36:44;;;;;;;21.73;13.80;;;18.20;99.90;;;;;;5131396;27;20050;-71
2022/09/08 01:39:10;;;;;;;;;;;18.20;99.90;;;;;;5127923;27;20070;-71
2022/09/08 01:41:36;;;;;;;22.30;13.25;;;18.20;99.90;;;;;;5114110;27;19926;-71
2022/09/08 01:44:02;;;;;;;;;;;18.20;99.90;;;;;;5112915;28;20043;-71
2022/09/08 01:46:30;;;;;;;22.55;12.50;;;18.30;99.90;;;;;;5114033;27;20022;-71
2022/09/08 01:48:56;;;;;;;22.63;13.88;;;18.30;99.90;;;;;;5105206;28;20043;-71
2022/09/08 01:51:22;;;;;;;24.13;13.65;;;18.30;99.90;;;;;;5108880;28;20404;-71
2022/09/08 01:53:48;;;;;;;;;;;18.40;99.90;;;;;;5112481;28;20039;-71
2022/09/08 01:56:14;;;;;;;20.73;13.02;;;18.40;99.90;;;;;;5111789;28;19942;-72
2022/09/08 01:58:40;;;;;;;;;;;18.40;99.90;;;;;;5112696;28;20044;-71
2022/09/08 02:01:05;;;;;;;27.05;14.05;;;18.40;99.90;;;;;;5120354;27;19919;-71
2022/09/08 02:03:31;;;;;;;;;;;18.40;99.90;;;;;;5120656;27;20050;-69
2022/09/08 02:06:01;;;;;;;22.05;13.00;;;18.40;99.90;;;;;;5108800;27;19923;-69
2022/09/08 02:08:27;;;;;;;21.80;13.88;;;18.30;99.90;;;;;;5131645;27;20053;-69
2022/09/08 02:10:54;;;;;;;;;;;18.30;99.90;;;;;;5116513;27;20047;-69
2022/09/08 02:13:20;;;;;;;28.50;15.52;;;18.30;99.90;;;;;;5111485;28;19919;-68
2022/09/08 02:15:45;;;;;;;;;;;18.30;99.90;;;;;;5094133;28;20047;-69
2022/09/08 02:18:11;;;;;;;24.58;14.43;;;18.20;99.90;;;;;;5093269;28;19919;-69
2022/09/08 02:20:37;;;;;;;;;;;18.20;99.90;;;;;;5128716;27;20074;-69
2022/09/08 02:23:02;;;;;;;29.40;15.23;;;18.20;99.90;;;;;;5130559;27;19919;-69
2022/09/08 02:25:28;;;;;;;;;;;18.20;99.90;;;;;;5120299;27;20039;-69
2022/09/08 02:27:54;;;;;;;29.55;15.48;;;18.20;99.90;;;;;;5093498;28;19930;-69
2022/09/08 02:30:20;;;;;;;;;;;18.20;99.90;;;;;;5112388;27;20044;-68
2022/09/08 02:32:46;;;;;;;29.65;16.85;;;18.20;99.90;;;;;;5111271;28;20284;-69
2022/09/08 02:35:11;;;;;;;;;;;18.20;99.90;;;;;;5093541;28;20154;-69
2022/09/08 02:37:37;;;;;;;28.00;15.85;;;18.20;99.90;;;;;;5109824;28;19924;-69
2022/09/08 02:40:03;;;;;;;;;;;18.20;99.90;;;;;;5121732;27;20073;-69
2022/09/08 02:42:29;;;;;;;25.90;15.75;;;18.20;99.90;;;;;;5110876;28;20119;-69
2022/09/08 02:44:54;;;;;;;;;;;18.20;99.90;;;;;;5111568;28;20481;-69
2022/09/08 02:47:20;;;;;;;26.10;15.77;;;18.20;99.90;;;;;;5110582;28;19926;-69
2022/09/08 02:49:46;;;;;;;28.98;15.68;;;18.20;99.90;;;;;;5111213;28;20039;-69
2022/09/08 02:52:11;;;;;;;;;;;18.20;99.90;;;;;;5109104;28;20481;-69
2022/09/08 02:54:38;;;;;;;28.48;15.80;;;18.20;99.90;;;;;;5111377;28;20272;-69
2022/09/08 02:57:04;;;;;;;29.08;16.13;;;18.20;99.90;;;;;;5111370;28;20048;-69
2022/09/08 02:59:29;;;;;;;;;;;18.20;99.90;;;;;;5110610;28;20047;-69
2022/09/08 03:01:56;;;;;;;26.45;15.45;;;18.20;99.90;;;;;;5130802;28;19926;-69
2022/09/08 03:04:21;;;;;;;27.50;15.50;;;18.20;99.90;;;;;;5130872;27;20051;-69
2022/09/08 03:06:47;;;;;;;;;;;18.20;99.90;;;;;;5123355;28;20438;-69
2022/09/08 03:09:12;;;;;;;27.60;15.15;;;18.20;99.90;;;;;;5111025;28;20448;-68
2022/09/08 03:11:38;;;;;;;;;;;18.20;99.90;;;;;;5123651;28;20331;-67
2022/09/08 03:14:04;;;;;;;29.75;16.38;;;18.20;99.90;;;;;;5131566;28;19946;-68
2022/09/08 03:16:30;;;;;;;;;;;18.20;99.90;;;;;;5127748;28;20106;-68
2022/09/08 03:18:55;;;;;;;29.00;16.02;;;18.20;99.90;;;;;;5135965;27;19968;-67
2022/09/08 03:21:21;;;;;;;;;;;18.20;99.90;;;;;;5129778;28;20046;-68
2022/09/08 03:23:48;;;;;;;29.15;16.27;;;18.20;99.90;;;;;;5131597;28;20376;-68
2022/09/08 03:26:18;;;;;;;27.80;15.20;;;18.20;99.90;;;;;;5131069;28;20539;-68
2022/09/08 03:28:44;;;;;;;27.90;16.30;;;18.20;99.90;;;;;;5131430;28;20083;-68
2022/09/08 03:31:13;;;;;;;28.55;16.27;;;18.20;99.90;;;;;;5130915;28;20123;-70
2022/09/08 03:33:40;;;;;;;28.05;16.80;;;18.20;99.90;;;;;;5131739;28;20047;-71
2022/09/08 03:36:08;;;;;;;33.53;17.25;;;18.20;99.90;;;;;;5130033;28;20062;-70
2022/09/08 03:38:35;;;;;;;28.55;15.63;;;18.20;99.90;;;;;;5130612;28;20054;-71
2022/09/08 03:41:08;;;;;;;28.85;16.30;;;18.20;99.90;;;;;;5114661;28;20054;-70
2022/09/08 03:43:34;;;;;;;27.90;15.85;;;18.20;99.90;;;;;;5110821;28;20087;-71
2022/09/08 03:45:59;;;;;;;29.55;16.08;;;18.10;99.90;;;;;;5110028;28;20120;-70
2022/09/08 03:48:25;;;;;;;;;;;18.10;99.90;;;;;;5110354;28;20497;-70
2022/09/08 03:50:51;;;;;;;31.17;17.17;;;18.10;99.90;;;;;;5109435;28;19924;-72
2022/09/08 03:53:17;;;;;;;;;;;18.10;99.90;;;;;;5109807;28;20043;-70
2022/09/08 03:55:43;;;;;;;29.55;16.33;;;18.10;99.90;;;;;;5119103;28;20280;-70
2022/09/08 03:58:09;;;;;;;28.25;16.27;;;18.10;99.90;;;;;;5131346;28;20035;-70
2022/09/08 04:00:35;;;;;;;29.05;16.33;;;18.10;99.90;;;;;;5130593;28;20047;-71
2022/09/08 04:03:01;;;;;;;;;;;18.10;99.90;;;;;;5129235;28;20160;-70
2022/09/08 04:05:27;;;;;;;31.05;16.25;;;18.10;99.90;;;;;;5115926;28;19927;-70
2022/09/08 04:07:52;;;;;;;;;;;18.10;99.90;;;;;;5130207;28;20052;-70
2022/09/08 04:10:19;;;;;;;31.45;17.55;;;18.00;99.90;;;;;;5124292;28;19919;-70
2022/09/08 04:12:46;;;;;;;29.65;17.42;;;18.00;99.90;;;;;;5130923;28;20046;-71
2022/09/08 04:15:12;;;;;;;30.70;17.10;;;18.00;99.90;;;;;;5130242;27;20043;-70
2022/09/08 04:17:38;;;;;;;;;;;18.00;99.90;;;;;;5113776;28;20048;-70
2022/09/08 04:20:05;;;;;;;32.80;17.08;;;18.00;99.90;;;;;;5113777;28;20079;-70
2022/09/08 04:22:30;;;;;;;32.60;17.52;;;18.00;99.90;;;;;;5110413;28;20062;-70
2022/09/08 04:24:56;;;;;;;;;;;18.00;99.90;;;;;;5114576;28;20536;-70
2022/09/08 04:27:22;;;;;;;32.55;16.98;;;17.90;99.90;;;;;;5113650;28;19926;-70
2022/09/08 04:29:50;;;;;;;32.40;17.70;;;17.90;99.90;;;;;;5113929;28;20039;-71
2022/09/08 04:32:15;;;;;;;32.00;17.42;;;17.90;99.90;;;;;;5113668;27;20560;-73
2022/09/08 04:34:41;;;;;;;;;;;17.90;99.90;;;;;;5114568;27;20131;-71
2022/09/08 04:37:06;;;;;;;31.88;18.30;;;17.80;99.90;;;;;;5112366;28;20014;-71
2022/09/08 04:39:32;;;;;;;;;;;17.80;99.90;;;;;;5118657;27;20035;-71
2022/09/08 04:41:58;;;;;;;34.80;19.35;;;17.80;99.90;;;;;;5134175;27;19968;-71
2022/09/08 04:44:24;;;;;;;37.53;20.00;;;17.70;99.90;;;;;;5133733;27;20051;-70
2022/09/08 04:46:50;;;;;;;;;;;17.70;99.90;;;;;;5119756;27;20654;-70
2022/09/08 04:49:15;;;;;;;34.13;18.02;;;17.70;99.90;;;;;;5113457;28;19919;-71
2022/09/08 04:51:42;;;;;;;;;;;17.70;99.90;;;;;;5076246;28;20060;-70
2022/09/08 04:54:09;;;;;;;34.22;18.83;;;17.70;99.90;;;;;;5113205;27;19919;-71
2022/09/08 04:56:35;;;;;;;34.05;18.30;;;17.70;99.90;;;;;;5112922;28;20093;-71
2022/09/08 04:59:03;;;;;;;33.75;18.45;;;17.70;99.90;;;;;;5113317;28;20537;-71
2022/09/08 05:01:34;;;;;;;36.92;18.58;;;17.70;99.90;;;;;;5112202;28;20097;-70
2022/09/08 05:04:01;;;;;;;36.80;19.75;;;17.70;99.90;;;;;;5129343;27;20047;-71
2022/09/08 05:06:29;;;;;;;33.40;18.83;;;17.70;99.90;;;;;;5120835;27;20112;-71
2022/09/08 05:08:56;;;;;;;33.35;19.23;;;17.70;99.90;;;;;;5113530;27;20051;-72
2022/09/08 05:11:23;;;;;;;33.80;19.17;;;17.70;99.90;;;;;;5133068;27;20046;-72
2022/09/08 05:13:49;;;;;;;36.67;19.45;;;17.70;99.90;;;;;;5133535;27;20051;-71
2022/09/08 05:16:20;;;;;;;38.53;18.73;;;17.70;99.90;;;;;;5131549;27;20047;-72
2022/09/08 05:18:48;;;;;;;33.17;17.98;;;17.70;99.90;;;;;;5120170;27;20734;-71
2022/09/08 05:21:15;;;;;;;38.13;19.75;;;17.70;99.90;;;;;;5131362;27;20467;-71
2022/09/08 05:23:41;;;;;;;33.22;18.35;;;17.70;99.90;;;;;;5121853;27;20146;-71
2022/09/08 05:26:09;;;;;;;;;;;17.70;99.90;;;;;;5131973;27;20051;-72
2022/09/08 05:28:38;;;;;;;34.92;18.52;;;17.70;99.90;;;;;;5132608;27;19919;-72
2022/09/08 05:31:05;;;;;;;38.42;19.35;;;17.70;99.90;;;;;;5132961;27;20047;-71
2022/09/08 05:33:31;;;;;;;40.05;20.23;;;17.70;99.90;;;;;;5132682;27;20074;-71
2022/09/08 05:35:57;;;;;;;38.88;20.65;;;17.70;99.90;;;;;;5131774;27;20060;-72
2022/09/08 05:38:23;;;;;;;38.97;20.98;;;17.70;99.90;;;;;;5132469;27;20051;-74
2022/09/08 05:40:49;;;;;;;39.30;20.58;;;17.70;99.90;;;;;;5115931;27;20134;-71
2022/09/08 05:43:15;;;;;;;;;;;17.70;99.90;;;;;;5113043;28;20040;-71
2022/09/08 05:45:45;;;;;;;37.03;20.42;;;17.70;99.90;;;;;;5120556;27;19920;-72
2022/09/08 05:48:11;;;;;;;38.88;20.25;;;17.70;99.90;;;;;;5094142;28;20054;-70
2022/09/08 05:50:36;;;;;;;37.25;20.83;;;17.70;99.90;;;;;;5107625;28;20060;-71
2022/09/08 05:53:03;;;;;;;39.03;21.20;;;17.60;99.90;;;;;;5109953;28;20036;-70
2022/09/08 05:55:29;;;;;;;42.22;21.92;;;17.60;99.90;;;;;;5111815;28;20123;-72
2022/09/08 05:57:56;;;;;;;39.20;21.45;;;17.50;99.90;;;;;;5111349;28;20051;-72
2022/09/08 06:00:23;;;;;;;37.90;21.40;;;17.50;99.90;;;;;;5110745;28;20050;-70
2022/09/08 06:02:52;;;;;;;42.85;21.92;;;17.40;99.90;;;;;;5108354;28;20066;-70
2022/09/08 06:05:22;;;;;;;41.25;23.55;;;17.40;99.90;;;;;;5111711;28;20100;-71
2022/09/08 06:07:49;;;;;;;49.92;22.45;;;17.40;99.90;;;;;;5109812;27;20078;-70
2022/09/08 06:10:17;;;;;;;45.75;24.15;;;17.40;99.90;;;;;;5095555;28;20074;-70
2022/09/08 06:12:43;;;;;;;54.97;25.88;;;17.40;99.90;;;;;;5090957;28;20491;-70
2022/09/08 06:15:10;;;;;;;46.20;23.30;;;17.40;99.90;;;;;;5091535;28;20112;-70
2022/09/08 06:17:37;;;;;;;46.60;22.05;;;17.40;99.90;;;;;;5089841;28;20051;-71
2022/09/08 06:20:05;;;;;;;44.58;22.48;;;17.40;99.90;;;;;;5092127;28;20090;-70
2022/09/08 06:22:32;;;;;;;51.13;24.13;;;17.30;99.90;;;;;;5097667;28;20050;-70
2022/09/08 06:24:59;;;;;;;37.85;18.83;;;17.30;99.90;;;;;;5091550;28;20044;-71
2022/09/08 06:27:49;;;;;;;15.95;9.20;;;17.30;99.90;;;;;;5091222;28;20375;-70
2022/09/08 06:30:18;;;;;;;27.88;12.57;;;17.20;99.90;;;;;;5091221;28;20044;-70
2022/09/08 06:32:48;;;;;;;32.60;16.30;;;17.10;99.90;;;;;;5096311;28;20389;-71
2022/09/08 06:35:21;;;;;;;35.50;16.90;;;17.10;99.90;;;;;;5111254;28;20501;-70
2022/09/08 06:37:54;;;;;;;35.08;16.40;;;17.00;99.90;;;;;;5108665;28;20656;-70
2022/09/08 06:40:58;;;;;;;35.55;18.75;;;17.00;99.90;;;;;;5101772;28;20501;-71
2022/09/08 06:43:38;;;;;;;43.03;19.20;;;17.00;99.90;;;;;;5090895;28;20124;-70
2022/09/08 06:46:21;;;;;;;32.22;15.27;;;17.00;99.90;;;;;;5090820;28;20054;-70
2022/09/08 06:48:48;;;;;;;20.33;11.05;;;17.00;99.90;;;;;;5098112;28;20059;-69
2022/09/08 06:51:33;;;;;;;23.23;11.40;;;17.00;99.90;;;;;;5117214;27;20083;-71
2022/09/08 06:54:10;;;;;;;26.83;12.93;;;17.00;99.90;;;;;;5114300;28;20119;-69
2022/09/08 06:56:51;;;;;;;35.63;16.80;;;17.10;99.90;;;;;;5128173;27;20043;-70
2022/09/08 06:59:28;;;;;;;27.48;12.68;;;17.00;99.90;;;;;;5131819;27;20051;-69
2022/09/08 07:02:07;;;;;;;34.03;14.73;;;16.90;99.90;;;;;;5131079;28;20055;-68
2022/09/08 07:04:41;;;;;;;26.25;12.38;;;16.80;99.90;;;;;;5131105;28;20059;-70
2022/09/08 07:07:52;;;;;;;25.77;14.27;;;16.80;99.90;;;;;;5114827;28;20089;-68
2022/09/08 07:10:29;;;;;;;26.95;12.85;;;16.70;99.90;;;;;;5103947;28;20484;-69
2022/09/08 07:13:05;;;;;;;33.10;16.33;;;16.70;99.90;;;;;;5119966;28;20047;-70
2022/09/08 07:16:09;;;;;;;30.17;15.50;;;16.70;99.90;;;;;;5114206;28;20392;-71
2022/09/08 07:18:40;;;;;;;36.92;18.65;;;16.70;99.90;;;;;;5122391;27;20062;-70
2022/09/08 07:21:17;;;;;;;37.67;19.35;;;16.70;99.90;;;;;;5111071;27;20043;-69
2022/09/08 07:23:44;;;;;;;38.55;18.65;;;16.80;99.90;;;;;;5089493;27;20067;-72
2022/09/08 07:26:27;;;;;;;35.35;17.73;;;16.80;99.90;;;;;;5119819;28;20055;-68
2022/09/08 07:29:02;;;;;;;31.80;15.80;;;16.80;99.90;;;;;;5121317;28;20039;-69
2022/09/08 07:31:28;;;;;;;34.78;18.05;;;16.80;99.90;;;;;;5127738;28;20039;-69
2022/09/08 07:34:03;;;;;;;28.90;15.38;;;16.80;99.90;;;;;;5121651;28;20076;-69
2022/09/08 07:36:50;;;;;;;33.03;15.65;;;16.80;99.90;;;;;;5123392;28;20047;-68
2022/09/08 07:39:45;;;;;;;35.78;17.15;;;16.80;99.90;;;;;;5122834;28;20436;-69
2022/09/08 07:42:14;;;;;;;40.63;16.58;;;16.80;99.90;;;;;;5129134;28;20114;-70
2022/09/08 07:44:40;;;;;;;36.35;19.40;;;16.80;99.90;;;;;;5093360;28;20127;-69
2022/09/08 07:47:28;;;;;;;39.75;18.77;;;16.80;99.90;;;;;;5109752;28;20051;-70
2022/09/08 07:50:05;;;;;;;36.22;18.05;;;16.80;99.90;;;;;;5116793;28;20053;-68
2022/09/08 07:52:52;;;;;;;35.63;17.17;;;16.80;99.90;;;;;;5111575;28;20526;-67
2022/09/08 07:55:32;;;;;;;42.97;20.15;;;16.80;99.90;;;;;;5114541;27;20056;-69
2022/09/08 07:58:17;;;;;;;42.55;20.67;;;16.80;99.90;;;;;;5113726;27;20044;-68
2022/09/08 08:01:01;;;;;;;44.25;21.58;;;16.80;99.90;;;;;;5113601;27;20052;-68
2022/09/08 08:03:33;;;;;;;47.88;20.90;;;16.70;99.90;;;;;;5114300;27;20038;-68
2022/09/08 08:06:10;;;;;;;45.92;21.65;;;16.70;99.90;;;;;;5114707;27;20040;-68
2022/09/08 08:15:38;;;;;;;46.78;21.65;;;16.70;99.90;;;;;;5081437;27;1962131;-69
2022/09/08 08:18:17;;;;;;;53.00;23.77;;;16.60;99.90;;;;;;5139171;27;20051;-68
2022/09/08 08:20:51;;;;;;;69.68;27.60;;;16.60;99.90;;;;;;5134099;27;20043;-68
2022/09/08 08:23:34;;;;;;;71.90;27.30;;;16.60;99.90;;;;;;5135173;27;20071;-70
2022/09/08 08:26:14;;;;;;;59.63;24.80;;;16.60;99.90;;;;;;5109505;27;20851;-70
2022/09/08 08:28:43;;;;;;;62.85;26.42;;;16.60;99.90;;;;;;5124699;27;20077;-72
2022/09/08 08:31:38;;;;;;;60.22;25.77;;;16.60;99.90;;;;;;5131292;27;20047;-68
2022/09/08 08:34:10;;;;;;;58.22;22.45;;;16.60;99.90;;;;;;5136857;27;20043;-68
2022/09/08 08:36:42;;;;;;;42.55;18.70;;;16.60;99.90;;;;;;5128757;27;20074;-68
2022/09/08 08:39:19;;;;;;;42.03;18.80;;;16.60;99.90;;;;;;5107712;27;20180;-68
2022/09/08 08:41:48;;;;;;;40.47;16.33;;;16.50;99.90;;;;;;5128892;27;20500;-68
2022/09/08 08:44:50;;;;;;;37.65;15.68;;;16.50;99.90;;;;;;5126713;27;20700;-69
2022/09/08 08:47:23;;;;;;;34.53;14.68;;;16.50;99.90;;;;;;5110326;27;20176;-69
2022/09/08 08:50:06;;;;;;;33.08;15.25;;;16.50;99.90;;;;;;5142743;27;20046;-68
2022/09/08 08:52:59;;;;;;;35.90;16.35;;;16.50;99.90;;;;;;5139270;27;20108;-69
2022/09/08 08:55:38;;;;;;;36.00;15.73;;;16.50;99.90;;;;;;5129598;27;20537;-68
2022/09/08 08:58:42;;;;;;;33.25;16.25;;;16.50;99.90;;;;;;5127858;27;20051;-69
2022/09/08 09:01:23;;;;;;;36.38;15.73;;;16.50;99.90;;;;;;5126744;27;20545;-68
2022/09/08 09:04:10;;;;;;;29.95;12.48;;;16.50;99.90;;;;;;5127402;27;20039;-69
2022/09/08 09:06:36;;;;;;;;;;;16.60;99.90;;;;;;5128334;27;20047;-68
2022/09/08 09:09:11;;;;;;;24.67;10.35;;;16.60;99.90;;;;;;5108693;28;19919;-69
2022/09/08 09:11:36;;;;;;;23.27;10.65;;;16.60;99.90;;;;;;5132229;27;20039;-68
2022/09/08 09:14:25;;;;;;;26.83;12.32;;;16.60;99.90;;;;;;5134667;27;20625;-72
2022/09/08 09:17:08;;;;;;;23.17;11.52;;;16.60;99.90;;;;;;5133581;27;20055;-72
2022/09/08 09:19:58;;;;;;;25.70;13.20;;;16.70;99.90;;;;;;5138188;27;20073;-72
2022/09/08 09:22:53;;;;;;;24.98;11.73;;;16.70;99.90;;;;;;5128069;27;20480;-72
2022/09/08 09:25:28;;;;;;;22.92;12.10;;;16.70;99.90;;;;;;5117140;27;20044;-71
2022/09/08 09:28:17;;;;;;;27.10;13.20;;;16.70;99.90;;;;;;5120688;27;20050;-71
2022/09/08 09:30:45;;;;;;;31.48;12.93;;;16.80;99.90;;;;;;5123706;27;20085;-71
2022/09/08 09:33:44;;;;;;;22.08;11.48;;;16.80;99.90;;;;;;5123315;27;20122;-71
2022/09/08 09:36:34;;;;;;;18.67;9.63;;;16.80;99.90;;;;;;5115662;27;20492;-69
2022/09/08 09:39:15;;;;;;;18.63;9.45;;;16.80;99.90;;;;;;5118561;27;20055;-70
2022/09/08 09:42:09;;;;;;;18.13;9.77;;;16.70;99.90;;;;;;5117485;27;20519;-71
2022/09/08 09:45:00;;;;;;;14.10;8.30;;;16.70;99.90;;;;;;5116954;27;20046;-70
2022/09/08 09:47:29;;;;;;;15.85;8.15;;;16.70;99.90;;;;;;5113454;28;20104;-71
2022/09/08 09:50:32;;;;;;;14.52;7.88;;;16.70;99.90;;;;;;5124126;27;20039;-70
2022/09/08 09:53:28;;;;;;;13.82;6.93;;;16.70;99.90;;;;;;5112650;28;20043;-71
2022/09/08 09:56:37;;;;;;;11.07;6.00;;;16.60;99.90;;;;;;5121124;27;20628;-74
2022/09/08 09:59:22;;;;;;;10.27;5.93;;;16.60;99.90;;;;;;5121546;27;20054;-72
2022/09/08 10:02:15;;;;;;;8.75;5.43;;;16.60;99.90;;;;;;5111355;27;20046;-73
2022/09/08 10:04:50;;;;;;;15.10;6.05;;;16.60;99.90;;;;;;5116264;27;20032;-71
2022/09/08 10:07:25;;;;;;;12.63;5.95;;;16.50;99.90;;;;;;5127361;27;20043;-72
2022/09/08 10:10:20;;;;;;;9.48;4.85;;;16.50;99.90;;;;;;5119388;27;20396;-69
2022/09/08 10:13:36;;;;;;;9.43;4.88;;;16.50;99.90;;;;;;5122145;27;20130;-72
2022/09/08 10:16:38;;;;;;;7.45;4.65;;;16.50;99.90;;;;;;5088806;27;20055;-70
2022/09/08 10:19:09;;;;;;;7.95;3.88;;;16.40;99.90;;;;;;5128880;27;20050;-71
2022/09/08 10:21:38;;;;;;;6.82;3.63;;;16.40;99.90;;;;;;5127100;27;20058;-70
2022/09/08 10:24:07;;;;;;;6.97;3.63;;;16.40;99.90;;;;;;5123880;27;20046;-71
2022/09/08 10:26:35;;;;;;;8.00;3.85;;;16.40;99.90;;;;;;5128048;27;20066;-70
2022/09/08 10:29:27;;;;;;;6.18;3.45;;;16.40;99.90;;;;;;5123659;27;20047;-70
2022/09/08 10:32:20;;;;;;;7.35;3.28;;;16.40;99.90;;;;;;5121503;27;20408;-71
2022/09/08 10:35:13;;;;;;;12.65;4.43;;;16.40;99.90;;;;;;5125008;27;20435;-69
2022/09/08 10:38:17;;;;;;;6.40;3.03;;;16.40;99.90;;;;;;5123487;27;20046;-70
2022/09/08 10:40:52;;;;;;;6.28;3.15;;;16.30;99.90;;;;;;5125588;27;20085;-71
2022/09/08 10:43:36;;;;;;;7.47;3.47;;;16.30;99.90;;;;;;5128134;27;20126;-70
2022/09/08 10:46:22;;;;;;;5.80;2.90;;;16.30;99.90;;;;;;5097920;27;20525;-70
2022/09/08 10:48:54;;;;;;;7.07;3.95;;;16.30;99.90;;;;;;5123846;27;20213;-72
2022/09/08 10:51:38;;;;;;;6.60;2.80;;;16.30;99.90;;;;;;5106239;27;20050;-70
2022/09/08 10:54:37;;;;;;;6.68;3.10;;;16.30;99.90;;;;;;5123673;27;20043;-69
2022/09/08 10:57:16;;;;;;;7.50;3.38;;;16.30;99.90;;;;;;5121032;27;20129;-70
2022/09/08 10:59:51;;;;;;;7.88;3.45;;;16.30;99.90;;;;;;5121085;27;20492;-71
2022/09/08 11:02:44;;;;;;;7.40;3.28;;;16.30;99.90;;;;;;5120856;27;20123;-71
2022/09/08 11:05:18;;;;;;;10.32;3.58;;;16.30;99.90;;;;;;5126009;27;20495;-71
2022/09/08 11:07:59;;;;;;;5.78;3.13;;;16.30;99.90;;;;;;5127655;27;20070;-70
2022/09/08 11:10:43;;;;;;;7.10;3.38;;;16.40;99.90;;;;;;5120247;27;20043;-70
2022/09/08 11:13:31;;;;;;;6.90;3.67;;;16.30;99.90;;;;;;5125537;27;20043;-71
2022/09/08 11:16:29;;;;;;;7.18;3.45;;;16.40;99.90;;;;;;5122316;27;20055;-71
2022/09/08 11:19:06;;;;;;;;;;;16.30;99.90;;;;;;5116467;27;20078;-72
2022/09/08 11:21:47;;;;;;;7.38;3.65;;;16.40;99.90;;;;;;5123733;27;19923;-71
2022/09/08 11:24:31;;;;;;;8.20;3.88;;;16.40;99.90;;;;;;5128493;27;20038;-70
2022/09/08 11:27:18;;;;;;;6.65;3.65;;;16.40;99.90;;;;;;5123779;27;20051;-70
2022/09/08 11:30:04;;;;;;;7.88;3.65;;;16.40;99.90;;;;;;5115243;27;20043;-70
2022/09/08 11:32:35;;;;;;;8.13;4.03;;;16.40;99.90;;;;;;5109244;27;20073;-70
2022/09/08 11:35:23;;;;;;;7.32;3.83;;;16.40;99.90;;;;;;5108999;27;20393;-71
2022/09/08 11:38:15;;;;;;;8.98;3.70;;;16.50;99.90;;;;;;5109195;27;20083;-70
2022/09/08 11:41:01;;;;;;;8.18;3.88;;;16.50;99.90;;;;;;5108857;27;20046;-70
2022/09/08 11:43:43;;;;;;;9.68;4.10;;;16.50;99.90;;;;;;5109179;27;20047;-70
2022/09/08 11:46:27;;;;;;;9.13;3.85;;;16.40;99.90;;;;;;5113541;27;20047;-71
2022/09/08 11:49:02;;;;;;;7.22;3.83;;;16.40;99.90;;;;;;5110486;27;20040;-71
2022/09/08 11:51:50;;;;;;;10.80;4.18;;;16.50;99.90;;;;;;5116181;27;20071;-71
2022/09/08 11:54:36;;;;;;;9.70;4.75;;;16.50;99.90;;;;;;5121992;27;20043;-69
2022/09/08 11:57:33;;;;;;;7.05;3.92;;;16.50;99.90;;;;;;5109934;27;20157;-71
2022/09/08 12:00:07;;;;;;;8.80;3.83;;;16.50;99.90;;;;;;5095571;28;20058;-72
2022/09/08 12:02:36;;;;;;;10.23;4.22;;;16.60;99.90;;;;;;5116832;28;20118;-69
2022/09/08 12:05:35;;;;;;;8.93;3.83;;;16.60;99.90;;;;;;5107627;27;20120;-71
2022/09/08 12:08:06;;;;;;;11.65;4.43;;;16.60;99.90;;;;;;5113117;28;20054;-72
2022/09/08 12:10:56;;;;;;;7.20;3.95;;;16.60;99.90;;;;;;5110674;27;20515;-70
2022/09/08 12:13:34;;;;;;;9.77;4.15;;;16.60;99.90;;;;;;5115036;28;20039;-69
2022/09/08 12:16:15;;;;;;;9.90;4.40;;;16.60;99.90;;;;;;5110905;28;20048;-71
2022/09/08 12:19:05;;;;;;;9.48;4.38;;;16.60;99.90;;;;;;5111040;28;20081;-69
2022/09/08 12:21:44;;;;;;;11.20;4.55;;;16.70;99.90;;;;;;5101814;28;20127;-70
2022/09/08 12:24:54;;;;;;;9.63;4.70;;;16.70;99.90;;;;;;5093678;28;20507;-69
2022/09/08 12:27:57;;;;;;;11.23;4.82;;;16.80;99.90;;;;;;5110438;28;20117;-69
2022/09/08 12:30:46;;;;;;;10.40;5.07;;;16.80;99.90;;;;;;5108649;28;20069;-70
2022/09/08 12:33:25;;;;;;;9.48;4.93;;;16.90;99.90;;;;;;5110478;28;20123;-70
2022/09/08 12:36:05;;;;;;;10.68;4.82;;;17.00;99.90;;;;;;5111729;28;20093;-70
2022/09/08 12:39:00;;;;;;;11.40;5.05;;;17.10;99.90;;;;;;5092926;28;20468;-70
2022/09/08 12:41:34;;;;;;;12.65;5.32;;;17.10;99.90;;;;;;5125959;28;20061;-70
2022/09/08 12:44:19;;;;;;;11.50;5.80;;;17.20;99.90;;;;;;5094609;28;20081;-72
2022/09/08 12:49:04;;;;;;;12.55;5.63;;;17.30;99.90;;;;;;5076903;27;1956939;-68
2022/09/08 12:53:21;;;;;;;11.53;6.10;;;17.40;99.90;;;;;;5052695;28;20176;-68
2022/09/08 12:56:19;;;;;;;13.70;6.32;;;17.50;99.90;;;;;;5063670;28;20052;-68
2022/09/08 13:01:18;;;;;;;11.15;5.82;;;17.60;99.90;;;;;;5060860;28;20176;-68
2022/09/08 13:03:44;;;;;;;11.85;6.70;;;17.60;99.90;;;;;;5067531;28;20056;-67
2022/09/08 13:06:45;;;;;;;13.52;6.72;;;17.60;99.90;;;;;;5059865;28;20103;-68
2022/09/08 13:11:11;;;;;;;15.30;7.20;;;17.70;99.90;;;;;;5128654;27;20361;-71
2022/09/08 13:13:46;;;;;;;13.05;6.45;;;17.80;99.90;;;;;;5146604;27;20057;-66
2022/09/08 13:16:35;;;;;;;12.93;6.90;;;17.80;99.90;;;;;;5144630;27;20051;-66
2022/09/08 13:20:39;;;;;;;12.38;6.40;;;18.10;99.90;;;;;;5108237;27;20904;-68
2022/09/08 13:23:19;;;;;;;14.02;6.35;;;18.20;99.90;;;;;;5108057;27;20043;-70
2022/09/08 13:26:03;;;;;;;12.73;6.60;;;18.30;99.90;;;;;;5094211;28;20052;-68
2022/09/08 13:28:57;;;;;;;14.93;7.25;;;18.50;99.90;;;;;;5105085;28;20048;-68
2022/09/08 13:31:40;;;;;;;12.40;7.00;;;18.50;99.90;;;;;;5101936;28;20127;-68
2022/09/08 13:34:26;;;;;;;12.05;5.68;;;18.50;99.90;;;;;;5098312;28;20052;-70
2022/09/08 13:37:17;;;;;;;13.02;6.35;;;18.50;99.90;;;;;;5096950;28;20075;-68
2022/09/08 13:39:46;;;;;;;12.55;6.55;;;18.50;99.90;;;;;;5104888;28;20040;-68
2022/09/08 13:42:49;;;;;;;17.00;6.95;;;18.50;99.90;;;;;;5107581;28;20046;-68
2022/09/08 13:45:37;;;;;;;13.75;6.53;;;18.40;99.90;;;;;;5097929;28;20040;-68